createdAt,value
2022-10-07T00:01:09.111Z,4.70
2022-10-07T00:06:18.005Z,4.70
2022-10-07T00:11:26.620Z,4.60
2022-10-07T00:16:36.184Z,4.60
2022-10-07T00:21:40.482Z,4.50
2022-10-07T00:26:43.508Z,4.50
2022-10-07T00:31:46.510Z,4.50
2022-10-07T00:36:51.976Z,4.40
2022-10-07T00:41:54.939Z,4.40
2022-10-07T00:46:59.991Z,4.40
2022-10-07T00:52:03.032Z,4.30
2022-10-07T00:57:05.915Z,4.30
2022-10-07T01:02:10.202Z,4.30
2022-10-07T01:07:13.154Z,4.30
2022-10-07T01:12:38.972Z,4.30
2022-10-07T01:18:11.147Z,4.20
2022-10-07T01:23:47.118Z,4.20
2022-10-07T01:29:01.123Z,4.10
2022-10-07T01:34:06.325Z,4.00
2022-10-07T01:39:14.307Z,4.00
2022-10-07T01:44:17.429Z,4.00
2022-10-07T01:49:20.143Z,3.90
2022-10-07T01:54:38.956Z,3.90
2022-10-07T02:00:01.851Z,3.80
2022-10-07T02:05:39.498Z,3.80
2022-10-07T02:10:52.968Z,3.70
2022-10-07T02:16:19.883Z,3.70
2022-10-07T02:21:27.654Z,3.60
2022-10-07T02:26:32.890Z,3.60
2022-10-07T02:31:37.978Z,3.50
2022-10-07T02:36:56.085Z,3.50
2022-10-07T02:42:16.712Z,3.40
2022-10-07T02:47:29.062Z,3.30
2022-10-07T02:52:34.085Z,3.30
2022-10-07T02:57:47.439Z,3.30
2022-10-07T03:03:02.518Z,3.20
2022-10-07T03:08:19.744Z,3.20
2022-10-07T03:13:24.957Z,3.20
2022-10-07T03:18:34.616Z,3.10
2022-10-07T03:24:04.843Z,3.10
2022-10-07T03:29:13.962Z,3.10
2022-10-07T03:34:17.591Z,3.00
2022-10-07T03:39:23.364Z,3.00
2022-10-07T03:44:26.948Z,2.90
2022-10-07T03:49:34.997Z,2.90
2022-10-07T03:54:38.167Z,2.90
2022-10-07T03:59:42.194Z,2.80
2022-10-07T04:04:45.166Z,2.80
2022-10-07T04:09:47.923Z,2.80
2022-10-07T04:14:51.084Z,2.80
2022-10-07T04:19:54.448Z,3.10
2022-10-07T04:25:15.664Z,3.20
2022-10-07T04:30:18.436Z,3.20
2022-10-07T04:35:23.328Z,3.20
2022-10-07T04:40:29.068Z,3.20
2022-10-07T04:45:38.724Z,3.20
2022-10-07T04:50:43.384Z,3.20
2022-10-07T04:55:50.199Z,3.20
2022-10-07T05:00:54.978Z,3.20
2022-10-07T05:06:05.858Z,3.10
2022-10-07T05:11:11.018Z,3.10
2022-10-07T05:16:26.472Z,3.10
2022-10-07T05:21:29.453Z,3.10
2022-10-07T05:26:32.738Z,3.30
2022-10-07T05:31:37.987Z,3.60
2022-10-07T05:36:43.865Z,4.00
2022-10-07T05:41:47.630Z,4.10
2022-10-07T05:46:53.554Z,4.30
2022-10-07T05:51:57.613Z,4.60
2022-10-07T05:57:00.491Z,4.70
2022-10-07T06:02:04.708Z,4.70
2022-10-07T06:07:09.211Z,4.80
2022-10-07T06:12:30.718Z,4.80
2022-10-07T06:17:42.979Z,4.90
2022-10-07T06:22:47.545Z,4.90
2022-10-07T06:27:55.108Z,4.90
2022-10-07T06:32:59.696Z,5.10
2022-10-07T06:38:05.215Z,5.20
2022-10-07T06:43:09.548Z,5.30
2022-10-07T06:48:20.059Z,5.60
2022-10-07T06:53:23.301Z,5.90
2022-10-07T06:58:26.698Z,6.10
2022-10-07T07:03:31.139Z,6.50
2022-10-07T07:08:36.709Z,6.80
2022-10-07T07:13:45.265Z,7.20
2022-10-07T07:19:05.352Z,7.50
2022-10-07T07:24:08.993Z,7.80
2022-10-07T07:29:14.850Z,8.20
2022-10-07T07:34:22.544Z,8.40
2022-10-07T07:39:26.303Z,8.80
2022-10-07T07:44:37.882Z,9.10
2022-10-07T07:49:44.961Z,9.50
2022-10-07T07:54:57.907Z,9.90
2022-10-07T08:00:01.026Z,10.20
2022-10-07T08:05:06.957Z,10.50
2022-10-07T08:10:10.362Z,10.90
2022-10-07T08:15:13.288Z,11.40
2022-10-07T08:20:16.556Z,11.70
2022-10-07T08:25:19.720Z,12.20
2022-10-07T08:30:24.065Z,12.40
2022-10-07T08:35:27.355Z,12.70
2022-10-07T08:40:30.508Z,13.10
2022-10-07T08:45:34.553Z,13.50
2022-10-07T08:51:06.458Z,13.90
2022-10-07T08:56:15.352Z,14.20
2022-10-07T09:01:22.598Z,14.60
2022-10-07T09:06:33.236Z,14.80
2022-10-07T09:11:36.158Z,15.00
2022-10-07T09:16:44.510Z,15.30
2022-10-07T09:21:50.817Z,15.60
2022-10-07T09:26:57.881Z,15.90
2022-10-07T09:32:00.670Z,16.20
2022-10-07T09:37:23.203Z,16.50
2022-10-07T09:42:35.168Z,16.70
2022-10-07T09:47:40.587Z,17.00
2022-10-07T09:52:56.319Z,17.00
2022-10-07T09:58:02.429Z,17.10
2022-10-07T10:03:08.040Z,17.30
2022-10-07T10:08:10.904Z,17.40
2022-10-07T10:13:37.367Z,17.60
2022-10-07T10:18:42.151Z,17.30
2022-10-07T10:23:51.995Z,17.30
2022-10-07T10:29:24.106Z,17.60
2022-10-07T10:34:44.895Z,17.80
2022-10-07T10:40:19.038Z,17.90
2022-10-07T10:45:54.744Z,18.10
2022-10-07T10:51:25.373Z,18.10
2022-10-07T10:56:38.289Z,18.20
2022-10-07T11:01:44.438Z,18.30
2022-10-07T11:07:09.420Z,18.10
2022-10-07T11:12:28.540Z,18.00
2022-10-07T11:17:35.989Z,18.10
2022-10-07T11:22:48.296Z,18.40
2022-10-07T11:27:54.068Z,18.60
2022-10-07T11:33:12.049Z,18.60
2022-10-07T11:38:20.138Z,18.70
2022-10-07T11:43:32.278Z,18.50
2022-10-07T11:48:49.230Z,18.90
2022-10-07T11:53:55.474Z,18.70
2022-10-07T11:59:07.088Z,18.80
2022-10-07T12:04:21.452Z,18.80
2022-10-07T12:10:13.591Z,18.80
2022-10-07T12:15:28.321Z,18.80
2022-10-07T12:20:46.640Z,19.00
2022-10-07T12:25:50.539Z,19.20
2022-10-07T12:30:55.586Z,19.10
2022-10-07T12:35:58.334Z,18.90
2022-10-07T12:41:04.918Z,19.00
2022-10-07T12:46:15.235Z,18.90
2022-10-07T12:51:25.015Z,19.10
2022-10-07T12:56:30.372Z,19.20
2022-10-07T13:02:20.029Z,19.40
2022-10-07T13:07:34.657Z,19.20
2022-10-07T13:12:59.050Z,19.30
2022-10-07T13:18:28.483Z,19.50
2022-10-07T13:23:32.334Z,19.60
2022-10-07T13:28:53.761Z,19.70
2022-10-07T13:33:59.056Z,19.70
2022-10-07T13:39:11.269Z,19.70
2022-10-07T13:44:18.513Z,19.90
2022-10-07T13:49:26.319Z,20.10
2022-10-07T13:54:32.095Z,20.10
2022-10-07T13:59:36.870Z,20.10
2022-10-07T14:05:01.165Z,20.20
2022-10-07T14:10:09.896Z,20.10
2022-10-07T14:15:17.230Z,19.90
2022-10-07T14:20:32.458Z,20.00
2022-10-07T14:25:53.342Z,20.00
2022-10-07T14:31:26.735Z,19.90
2022-10-07T14:36:29.599Z,20.10
2022-10-07T14:41:32.793Z,20.00
2022-10-07T14:46:36.369Z,19.80
2022-10-07T14:51:40.489Z,20.10
2022-10-07T14:56:43.285Z,20.10
2022-10-07T15:01:49.754Z,20.20
2022-10-07T15:06:52.489Z,20.20
2022-10-07T15:11:56.277Z,20.30
2022-10-07T15:16:59.582Z,20.10
2022-10-07T15:22:02.339Z,20.00
2022-10-07T15:27:06.603Z,19.90
2022-10-07T15:32:09.413Z,19.70
2022-10-07T15:37:12.182Z,19.50
2022-10-07T15:42:15.681Z,19.30
2022-10-07T15:47:18.840Z,19.00
2022-10-07T15:52:21.763Z,18.80
2022-10-07T15:57:24.596Z,18.40
2022-10-07T16:02:27.331Z,18.10
2022-10-07T16:07:30.395Z,17.80
2022-10-07T16:12:33.159Z,17.50
2022-10-07T16:17:35.912Z,17.20
2022-10-07T16:22:38.654Z,17.00
2022-10-07T16:28:00.095Z,16.70
2022-10-07T16:33:02.928Z,16.40
2022-10-07T16:38:06.175Z,16.10
2022-10-07T16:43:08.972Z,15.80
2022-10-07T16:48:12.265Z,15.50
2022-10-07T16:53:15.035Z,15.20
2022-10-07T16:58:17.746Z,15.10
2022-10-07T17:03:21.039Z,14.80
2022-10-07T17:08:24.113Z,14.50
2022-10-07T17:13:27.046Z,14.30
2022-10-07T17:18:31.388Z,14.10
2022-10-07T17:23:35.441Z,13.90
2022-10-07T17:28:38.391Z,13.70
2022-10-07T17:33:44.350Z,13.50
2022-10-07T17:38:47.122Z,13.30
2022-10-07T17:43:52.228Z,13.20
2022-10-07T17:48:57.544Z,13.10
2022-10-07T17:54:01.858Z,12.90
2022-10-07T17:59:05.578Z,12.80
2022-10-07T18:04:11.514Z,12.80
2022-10-07T18:09:18.636Z,12.70
2022-10-07T18:14:40.706Z,12.60
2022-10-07T18:19:45.158Z,12.60
2022-10-07T18:24:48.038Z,12.60
2022-10-07T18:29:53.927Z,12.50
2022-10-07T18:34:56.923Z,12.50
2022-10-07T18:40:00.832Z,12.40
2022-10-07T18:45:03.829Z,12.30
2022-10-07T18:50:07.327Z,12.30
2022-10-07T18:55:10.294Z,12.30
2022-10-07T19:00:13.731Z,12.20
2022-10-07T19:05:16.492Z,12.20
2022-10-07T19:10:19.222Z,12.30
2022-10-07T19:15:21.945Z,12.20
2022-10-07T19:20:24.670Z,12.20
2022-10-07T19:25:45.784Z,12.10
2022-10-07T19:30:49.265Z,12.00
2022-10-07T19:35:56.270Z,11.90
2022-10-07T19:40:59.049Z,11.90
2022-10-07T19:46:02.884Z,11.80
2022-10-07T19:51:17.872Z,11.80
2022-10-07T19:56:41.199Z,11.80
2022-10-07T20:01:47.603Z,11.80
2022-10-07T20:06:50.579Z,11.70
2022-10-07T20:11:53.335Z,11.80
2022-10-07T20:16:56.390Z,11.70
2022-10-07T20:22:01.260Z,11.60
2022-10-07T20:27:06.529Z,11.70
2022-10-07T20:32:09.347Z,11.60
2022-10-07T20:37:12.615Z,11.60
2022-10-07T20:42:21.515Z,11.60
2022-10-07T20:47:26.293Z,11.50
2022-10-07T20:52:32.190Z,11.50
2022-10-07T20:57:38.021Z,11.40
2022-10-07T21:02:41.151Z,11.30
2022-10-07T21:07:43.950Z,11.30
2022-10-07T21:12:46.947Z,11.10
2022-10-07T21:17:49.778Z,11.10
2022-10-07T21:22:54.303Z,11.00
2022-10-07T21:27:57.033Z,10.90
2022-10-07T21:32:59.710Z,10.90
2022-10-07T21:38:02.502Z,10.80
2022-10-07T21:43:05.272Z,10.80
2022-10-07T21:48:08.214Z,10.80
2022-10-07T21:53:11.771Z,10.80
2022-10-07T21:58:15.345Z,10.80
2022-10-07T22:03:18.243Z,10.70
2022-10-07T22:08:35.973Z,10.80
2022-10-07T22:13:44.582Z,10.80
2022-10-07T22:18:49.739Z,10.80
2022-10-07T22:23:55.383Z,10.80
2022-10-07T22:28:58.125Z,10.70
2022-10-07T22:34:01.742Z,10.60
2022-10-07T22:39:04.723Z,10.60
2022-10-07T22:44:07.449Z,10.50
2022-10-07T22:49:10.186Z,10.40
2022-10-07T22:54:14.245Z,10.40
2022-10-07T22:59:17.041Z,10.30
2022-10-07T23:04:21.506Z,10.20
2022-10-07T23:09:24.383Z,10.10
2022-10-07T23:14:27.026Z,10.00
2022-10-07T23:19:30.119Z,10.00
2022-10-07T23:24:33.369Z,10.10
2022-10-07T23:29:36.075Z,10.00
2022-10-07T23:34:38.815Z,10.00
2022-10-07T23:39:41.695Z,10.00
2022-10-07T23:44:44.382Z,10.10
2022-10-07T23:49:47.125Z,10.10
2022-10-07T23:54:49.818Z,10.10
2022-10-07T23:59:52.564Z,10.10
